TimeCST,TemperatureF,Dew PointF,Humidity,Sea Level PressureIn,VisibilityMPH,Wind Direction,Wind SpeedMPH,Gust SpeedMPH,PrecipitationIn,Events,Conditions,WindDirDegrees,DateUTC
12:06 AM,8.6,6.8,92,29.70,8.0,Calm,Calm,-,N/A,,Scattered Clouds,0,2012-12-15 06:06:00
12:15 AM,10.4,8.6,92,29.70,8.0,Calm,Calm,-,N/A,,Mostly Cloudy,0,2012-12-15 06:15:00
12:33 AM,10.4,8.6,92,29.69,1.5,Calm,Calm,-,N/A,,Overcast,0,2012-12-15 06:33:00
12:39 AM,8.6,8.6,100,29.69,0.5,Calm,Calm,-,N/A,Fog,Light Freezing Fog,0,2012-12-15 06:39:00
12:41 AM,8.6,8.6,100,29.69,0.2,Calm,Calm,-,N/A,Fog,Light Freezing Fog,0,2012-12-15 06:41:00
12:52 AM,10.4,8.6,92,29.70,0.2,SSW,3.5,-,N/A,Fog,Light Freezing Fog,210,2012-12-15 06:52:00
1:17 AM,10.4,8.6,92,29.70,0.5,Calm,Calm,-,N/A,Fog,Light Freezing Fog,0,2012-12-15 07:17:00
1:29 AM,10.4,10.4,100,29.70,1.2,Calm,Calm,-,N/A,,Scattered Clouds,0,2012-12-15 07:29:00
1:46 AM,12.2,10.4,92,29.71,3.0,Calm,Calm,-,N/A,,Scattered Clouds,0,2012-12-15 07:46:00
1:52 AM,12.0,10.9,95,29.82,5.0,Calm,Calm,-,N/A,,Partly Cloudy,0,2012-12-15 07:52:00
2:52 AM,8.1,7.0,95,29.84,9.0,South,3.5,-,N/A,,Clear,190,2012-12-15 08:52:00
3:52 AM,10.0,8.1,92,29.84,10.0,SSW,5.8,-,N/A,,Scattered Clouds,200,2012-12-15 09:52:00
4:52 AM,12.0,10.9,95,29.85,10.0,SSW,4.6,-,N/A,,Overcast,210,2012-12-15 10:52:00
5:52 AM,12.0,10.9,95,29.86,10.0,Calm,Calm,-,N/A,,Scattered Clouds,0,2012-12-15 11:52:00
6:52 AM,8.1,7.0,95,29.88,10.0,Calm,Calm,-,N/A,,Clear,0,2012-12-15 12:52:00
7:52 AM,6.1,5.0,95,29.90,10.0,Calm,Calm,-,N/A,,Mostly Cloudy,0,2012-12-15 13:52:00
8:46 AM,6.8,3.2,85,29.77,8.0,Calm,Calm,-,N/A,,Mostly Cloudy,0,2012-12-15 14:46:00
8:52 AM,7.0,5.0,92,29.90,8.0,Calm,Calm,-,N/A,,Overcast,0,2012-12-15 14:52:00
9:52 AM,14.0,12.9,95,29.91,9.0,Calm,Calm,-,N/A,,Overcast,0,2012-12-15 15:52:00
10:07 AM,15.8,14.0,93,29.80,9.0,Calm,Calm,-,N/A,,Overcast,0,2012-12-15 16:07:00
10:52 AM,17.1,16.0,96,29.93,9.0,SW,4.6,-,N/A,,Overcast,220,2012-12-15 16:52:00
11:43 AM,21.2,19.4,93,29.81,1.8,SW,6.9,-,N/A,,Overcast,230,2012-12-15 17:43:00
11:52 AM,21.0,21.0,100,29.93,0.5,SW,8.1,-,N/A,Fog,Light Freezing Fog,230,2012-12-15 17:52:00
12:05 PM,21.2,21.2,100,29.80,1.2,SW,8.1,-,N/A,,Overcast,230,2012-12-15 18:05:00
12:30 PM,23.0,23.0,100,29.80,2.5,West,5.8,-,N/A,,Overcast,270,2012-12-15 18:30:00
12:49 PM,23.0,23.0,100,29.79,3.0,WSW,6.9,-,N/A,,Overcast,250,2012-12-15 18:49:00
12:52 PM,23.0,23.0,100,29.90,3.0,WSW,9.2,-,N/A,,Overcast,250,2012-12-15 18:52:00
1:52 PM,24.1,23.0,96,29.88,10.0,WNW,4.6,-,N/A,,Overcast,290,2012-12-15 19:52:00
2:52 PM,23.0,21.9,96,29.89,10.0,WNW,6.9,-,N/A,,Overcast,290,2012-12-15 20:52:00
3:52 PM,24.1,23.0,96,29.90,10.0,NNW,6.9,-,N/A,,Overcast,330,2012-12-15 21:52:00
4:52 PM,23.0,23.0,100,29.90,10.0,West,5.8,-,N/A,,Overcast,270,2012-12-15 22:52:00
5:52 PM,23.0,21.9,96,29.90,10.0,Calm,Calm,-,N/A,,Overcast,0,2012-12-15 23:52:00
6:52 PM,21.9,21.9,100,29.91,10.0,NNW,4.6,-,N/A,,Overcast,330,2012-12-16 00:52:00
7:31 PM,21.2,21.2,100,29.79,10.0,Calm,Calm,-,N/A,,Overcast,0,2012-12-16 01:31:00
7:52 PM,21.9,21.9,100,29.91,10.0,Calm,Calm,-,N/A,,Overcast,0,2012-12-16 01:52:00
8:52 PM,21.9,21.0,96,29.91,9.0,Calm,Calm,-,N/A,,Overcast,0,2012-12-16 02:52:00
9:45 PM,21.2,21.2,100,29.79,2.5,SSE,4.6,-,N/A,,Overcast,160,2012-12-16 03:45:00
9:52 PM,21.0,19.9,96,29.90,2.0,Calm,Calm,-,N/A,,Overcast,0,2012-12-16 03:52:00
10:02 PM,21.2,21.2,100,29.79,1.2,WSW,3.5,-,N/A,,Overcast,240,2012-12-16 04:02:00
10:19 PM,21.2,21.2,100,29.79,1.0,Calm,Calm,-,N/A,,Mist,0,2012-12-16 04:19:00
10:35 PM,21.2,21.2,100,29.79,0.8,Calm,Calm,-,N/A,,Mist,0,2012-12-16 04:35:00
10:41 PM,21.2,21.2,100,29.79,1.0,Calm,Calm,-,N/A,,Mist,0,2012-12-16 04:41:00
10:52 PM,19.9,19.9,100,29.89,0.8,SSW,4.6,-,N/A,,Mist,210,2012-12-16 04:52:00
11:52 PM,19.9,19.9,100,29.88,0.5,Calm,Calm,-,N/A,Fog,Light Freezing Fog,0,2012-12-16 05:52:00